createdAt,value
2019-01-19T00:00:03.595Z,0
2019-01-19T00:01:03.630Z,0
2019-01-19T00:02:03.315Z,0
2019-01-19T00:03:03.120Z,0
2019-01-19T00:04:03.890Z,0
2019-01-19T00:05:11.102Z,0
2019-01-19T00:06:03.029Z,1.1
2019-01-19T00:07:03.703Z,1.1
2019-01-19T00:08:03.432Z,1.1
2019-01-19T00:09:03.881Z,1.1
2019-01-19T00:10:03.716Z,1.1
2019-01-19T00:11:02.098Z,1.1
2019-01-19T00:12:03.175Z,1.1
2019-01-19T00:13:03.192Z,1.1
2019-01-19T00:14:03.103Z,0
2019-01-19T00:15:03.148Z,1.1
2019-01-19T00:16:03.220Z,0
2019-01-19T00:17:02.933Z,1.1
2019-01-19T00:18:03.939Z,1.1
2019-01-19T00:19:02.938Z,1.1
2019-01-19T00:20:03.532Z,1.1
2019-01-19T00:21:03.042Z,1.1
2019-01-19T00:22:03.826Z,0
2019-01-19T00:23:03.562Z,0
2019-01-19T00:24:03.022Z,1.1
2019-01-19T00:25:03.481Z,1.1
2019-01-19T00:26:03.370Z,1.1
2019-01-19T00:27:03.037Z,0
2019-01-19T00:28:03.068Z,0
2019-01-19T00:29:03.979Z,1.1
2019-01-19T00:30:03.425Z,1.1
2019-01-19T00:31:03.122Z,0
2019-01-19T00:32:03.697Z,1.1
2019-01-19T00:33:03.488Z,1.1
2019-01-19T00:34:03.171Z,1.1
2019-01-19T00:35:03.475Z,1.1
2019-01-19T00:36:03.294Z,1.1
2019-01-19T00:37:03.042Z,0
2019-01-19T00:38:03.357Z,0
2019-01-19T00:39:02.406Z,0
2019-01-19T00:40:03.445Z,1.1
2019-01-19T00:41:03.057Z,1.1
2019-01-19T00:42:03.175Z,1.1
2019-01-19T00:43:03.899Z,2.5
2019-01-19T00:44:03.044Z,0
2019-01-19T00:45:03.233Z,1.1
2019-01-19T00:46:04.059Z,0
2019-01-19T00:47:03.293Z,0
2019-01-19T00:48:03.108Z,1.1
2019-01-19T00:49:03.057Z,1.1
2019-01-19T00:50:03.804Z,1.1
2019-01-19T00:51:03.249Z,1.1
2019-01-19T00:52:02.074Z,1.1
2019-01-19T00:53:03.084Z,1.1
2019-01-19T00:54:03.314Z,1.1
2019-01-19T00:55:02.981Z,1.1
2019-01-19T00:56:03.230Z,1.1
2019-01-19T00:57:02.962Z,1.1
2019-01-19T00:58:03.993Z,3.6
2019-01-19T00:59:03.558Z,3.6
2019-01-19T01:00:03.652Z,1.1
2019-01-19T01:01:03.255Z,1.1
2019-01-19T01:02:03.805Z,0
2019-01-19T01:03:03.299Z,0
2019-01-19T01:04:03.490Z,0
2019-01-19T01:05:03.856Z,0
2019-01-19T01:06:03.448Z,0
2019-01-19T01:07:03.087Z,0
2019-01-19T01:08:03.656Z,2.5
2019-01-19T01:09:03.425Z,2.5
2019-01-19T01:10:03.035Z,2.5
2019-01-19T01:11:03.510Z,1.1
2019-01-19T01:12:02.966Z,1.1
2019-01-19T01:13:03.367Z,2.5
2019-01-19T01:14:02.810Z,2.5
2019-01-19T01:15:03.067Z,2.5
2019-01-19T01:16:03.303Z,2.5
2019-01-19T01:17:03.319Z,2.5
2019-01-19T01:18:03.750Z,2.5
2019-01-19T01:19:03.525Z,2.5
2019-01-19T01:20:03.307Z,2.5
2019-01-19T01:21:03.067Z,2.5
2019-01-19T01:22:03.016Z,2.5
2019-01-19T01:23:02.919Z,1.1
2019-01-19T01:24:03.778Z,1.1
2019-01-19T01:25:02.932Z,3.6
2019-01-19T01:26:03.958Z,3.6
2019-01-19T01:27:01.961Z,2.5
2019-01-19T01:28:03.522Z,2.5
2019-01-19T01:29:03.472Z,2.5
2019-01-19T01:30:03.060Z,1.1
2019-01-19T01:31:03.812Z,1.1
2019-01-19T01:32:03.768Z,2.5
2019-01-19T01:33:03.431Z,2.5
2019-01-19T01:34:03.411Z,0
2019-01-19T01:35:03.383Z,0
2019-01-19T01:36:02.570Z,1.1
2019-01-19T01:37:03.164Z,1.1
2019-01-19T01:38:02.539Z,3.6
2019-01-19T01:39:03.061Z,3.6
2019-01-19T01:40:02.833Z,2.5
2019-01-19T01:41:03.099Z,1.1
2019-01-19T01:42:03.927Z,1.1
2019-01-19T01:43:03.940Z,1.1
2019-01-19T01:44:03.672Z,2.5
2019-01-19T01:45:03.580Z,2.5
2019-01-19T01:46:03.321Z,2.5
2019-01-19T01:47:03.691Z,2.5
2019-01-19T01:48:03.168Z,3.6
2019-01-19T01:49:03.735Z,3.6
2019-01-19T01:50:02.405Z,1.1
2019-01-19T01:51:04.119Z,3.6
2019-01-19T01:52:03.699Z,2.5
2019-01-19T01:53:03.002Z,1.1
2019-01-19T01:54:03.980Z,2.5
2019-01-19T01:55:03.771Z,2.5
2019-01-19T01:56:03.388Z,2.5
2019-01-19T01:57:03.339Z,3.6
2019-01-19T01:58:03.060Z,3.6
2019-01-19T01:59:03.768Z,1.1
2019-01-19T02:00:03.166Z,1.1
2019-01-19T02:01:03.162Z,1.1
2019-01-19T02:02:03.753Z,1.1
2019-01-19T02:03:02.986Z,1.1
2019-01-19T02:04:03.476Z,2.5
2019-01-19T02:05:03.833Z,2.5
2019-01-19T02:06:03.556Z,2.5
2019-01-19T02:07:02.951Z,3.6
2019-01-19T02:08:04.049Z,3.6
2019-01-19T02:09:03.722Z,3.6
2019-01-19T02:10:03.844Z,3.6
2019-01-19T02:11:03.262Z,2.5
2019-01-19T02:12:03.105Z,2.5
2019-01-19T02:13:03.270Z,1.1
2019-01-19T02:14:03.128Z,0
2019-01-19T02:15:03.376Z,0
2019-01-19T02:16:03.702Z,2.5
2019-01-19T02:17:03.683Z,1.1
2019-01-19T02:18:03.217Z,1.1
2019-01-19T02:19:03.101Z,0
2019-01-19T02:20:02.572Z,2.5
2019-01-19T02:21:02.341Z,1.1
2019-01-19T02:22:03.734Z,2.5
2019-01-19T02:23:03.349Z,2.5
2019-01-19T02:24:03.379Z,2.5
2019-01-19T02:25:03.188Z,2.5
2019-01-19T02:26:03.374Z,2.5
2019-01-19T02:27:03.038Z,3.6
2019-01-19T02:28:03.117Z,0
2019-01-19T02:29:03.374Z,1.1
2019-01-19T02:30:03.128Z,1.1
2019-01-19T02:31:03.301Z,2.5
2019-01-19T02:32:03.182Z,2.5
2019-01-19T02:33:03.104Z,2.5
2019-01-19T02:34:03.678Z,2.5
2019-01-19T02:35:03.022Z,1.1
2019-01-19T02:36:03.469Z,2.5
2019-01-19T02:37:03.098Z,2.5
2019-01-19T02:38:03.032Z,2.5
2019-01-19T02:39:02.997Z,2.5
2019-01-19T02:40:03.723Z,3.6
2019-01-19T02:41:03.430Z,3.6
2019-01-19T02:42:03.115Z,3.6
2019-01-19T02:43:03.683Z,2.5
2019-01-19T02:44:03.205Z,2.5
2019-01-19T02:45:03.327Z,2.5
2019-01-19T02:46:02.998Z,3.6
2019-01-19T02:47:03.783Z,3.6
2019-01-19T02:48:03.264Z,3.6
2019-01-19T02:49:03.748Z,3.6
2019-01-19T02:50:03.718Z,1.1
2019-01-19T02:51:03.586Z,2.5
2019-01-19T02:52:03.941Z,2.5
2019-01-19T02:53:03.706Z,2.5
2019-01-19T02:54:03.050Z,2.5
2019-01-19T02:55:02.999Z,2.5
2019-01-19T02:56:03.762Z,2.5
2019-01-19T02:57:03.316Z,1.1
2019-01-19T02:58:03.354Z,1.1
2019-01-19T02:59:03.299Z,2.5
2019-01-19T03:00:03.666Z,1.1
2019-01-19T03:01:02.869Z,1.1
2019-01-19T03:02:03.162Z,1.1
2019-01-19T03:03:02.914Z,1.1
2019-01-19T03:04:03.414Z,2.5
2019-01-19T03:05:03.605Z,2.5
2019-01-19T03:06:03.397Z,1.1
2019-01-19T03:07:03.880Z,1.1
2019-01-19T03:08:03.858Z,1.1
2019-01-19T03:09:03.598Z,1.1
2019-01-19T03:10:03.578Z,1.1
2019-01-19T03:11:02.882Z,0
2019-01-19T03:12:03.334Z,1.1
2019-01-19T03:13:02.603Z,1.1
2019-01-19T03:14:03.614Z,1.1
2019-01-19T03:15:03.530Z,2.5
2019-01-19T03:16:03.886Z,1.1
2019-01-19T03:17:03.899Z,2.5
2019-01-19T03:18:03.737Z,1.1
2019-01-19T03:19:03.419Z,1.1
2019-01-19T03:20:03.924Z,2.5
2019-01-19T03:21:03.768Z,2.5
2019-01-19T03:22:02.947Z,0
2019-01-19T03:23:03.472Z,0
2019-01-19T03:24:03.379Z,0
2019-01-19T03:25:03.241Z,0
2019-01-19T03:26:03.182Z,2.5
2019-01-19T03:27:03.033Z,2.5
2019-01-19T03:28:03.247Z,1.1
2019-01-19T03:29:03.079Z,1.1
2019-01-19T03:30:03.901Z,1.1
2019-01-19T03:31:03.511Z,1.1
2019-01-19T03:32:03.729Z,1.1
2019-01-19T03:33:03.434Z,1.1
2019-01-19T03:34:02.780Z,1.1
2019-01-19T03:35:03.126Z,1.1
2019-01-19T03:36:05.045Z,0
2019-01-19T03:37:03.630Z,0
2019-01-19T03:38:03.343Z,1.1
2019-01-19T03:39:03.096Z,1.1
2019-01-19T03:40:03.888Z,1.1
2019-01-19T03:41:03.054Z,1.1
2019-01-19T03:42:02.788Z,1.1
2019-01-19T03:43:03.301Z,1.1
2019-01-19T03:44:03.448Z,1.1
2019-01-19T03:45:03.839Z,1.1
2019-01-19T03:46:03.155Z,1.1
2019-01-19T03:47:02.966Z,0
2019-01-19T03:48:03.682Z,1.1
2019-01-19T03:49:03.126Z,1.1
2019-01-19T03:50:03.577Z,1.1
2019-01-19T03:51:03.667Z,1.1
2019-01-19T03:52:03.029Z,1.1
2019-01-19T03:53:03.015Z,2.5
2019-01-19T03:54:03.152Z,0
2019-01-19T03:55:03.492Z,0
2019-01-19T03:56:03.201Z,0
2019-01-19T03:57:03.132Z,0
2019-01-19T03:58:02.942Z,0
2019-01-19T03:59:03.465Z,1.1
2019-01-19T04:00:03.368Z,0
2019-01-19T04:01:03.586Z,0
2019-01-19T04:02:02.923Z,1.1
2019-01-19T04:03:03.803Z,1.1
2019-01-19T04:04:03.005Z,1.1
2019-01-19T04:05:02.952Z,1.1
2019-01-19T04:06:03.370Z,0
2019-01-19T04:07:03.935Z,1.1
2019-01-19T04:08:03.256Z,1.1
2019-01-19T04:09:03.758Z,0
2019-01-19T04:10:03.497Z,0
2019-01-19T04:11:03.222Z,0
2019-01-19T04:12:03.133Z,0
2019-01-19T04:13:03.080Z,0
2019-01-19T04:14:03.557Z,0
2019-01-19T04:15:03.906Z,0
2019-01-19T04:16:03.631Z,0
2019-01-19T04:17:03.299Z,0
2019-01-19T04:18:03.254Z,0
2019-01-19T04:19:03.416Z,0
2019-01-19T04:20:03.166Z,1.1
2019-01-19T04:21:02.926Z,1.1
2019-01-19T04:22:03.318Z,0
2019-01-19T04:23:02.747Z,0
2019-01-19T04:24:03.947Z,0
2019-01-19T04:25:03.465Z,0
2019-01-19T04:26:03.364Z,0
2019-01-19T04:27:03.368Z,0
2019-01-19T04:28:03.558Z,0
2019-01-19T04:29:03.475Z,1.1
2019-01-19T04:30:03.502Z,0
2019-01-19T04:31:03.380Z,0
2019-01-19T04:32:03.339Z,1.1
2019-01-19T04:33:03.517Z,1.1
2019-01-19T04:34:02.849Z,0
2019-01-19T04:35:03.228Z,0
2019-01-19T04:36:04.030Z,1.1
2019-01-19T04:37:03.512Z,0
2019-01-19T04:38:03.284Z,0
2019-01-19T04:39:03.555Z,0
2019-01-19T04:40:02.150Z,1.1
2019-01-19T04:41:03.371Z,1.1
2019-01-19T04:42:03.307Z,0
2019-01-19T04:43:03.308Z,0
2019-01-19T04:44:03.257Z,0
2019-01-19T04:45:03.735Z,0
2019-01-19T04:46:03.471Z,0
2019-01-19T04:47:02.833Z,0
2019-01-19T04:48:03.260Z,1.1
2019-01-19T04:49:03.121Z,1.1
2019-01-19T04:50:03.105Z,0
2019-01-19T04:51:03.772Z,0
2019-01-19T04:52:02.968Z,1.1
2019-01-19T04:53:02.367Z,1.1
2019-01-19T04:54:02.998Z,1.1
2019-01-19T04:55:03.290Z,1.1
2019-01-19T04:56:03.770Z,1.1
2019-01-19T04:57:03.574Z,0
2019-01-19T04:58:03.615Z,0
2019-01-19T04:59:03.374Z,0
2019-01-19T05:00:03.442Z,0
2019-01-19T05:01:03.137Z,0
2019-01-19T05:02:03.416Z,0
2019-01-19T05:03:02.956Z,0
2019-01-19T05:04:03.332Z,0
2019-01-19T05:05:03.668Z,0
2019-01-19T05:06:13.104Z,0
2019-01-19T05:07:03.719Z,1.1
2019-01-19T05:08:03.332Z,1.1
2019-01-19T05:09:02.956Z,1.1
2019-01-19T05:10:03.614Z,1.1
2019-01-19T05:11:03.162Z,1.1
2019-01-19T05:12:03.778Z,1.1
2019-01-19T05:13:03.712Z,1.1
2019-01-19T05:14:03.670Z,1.1
2019-01-19T05:15:03.466Z,1.1
2019-01-19T05:16:03.838Z,0
2019-01-19T05:17:03.568Z,1.1
2019-01-19T05:18:03.689Z,1.1
2019-01-19T05:19:03.211Z,1.1
2019-01-19T05:20:03.243Z,1.1
2019-01-19T05:21:03.687Z,1.1
2019-01-19T05:22:03.733Z,1.1
2019-01-19T05:23:03.104Z,2.5
2019-01-19T05:24:03.737Z,2.5
2019-01-19T05:25:02.871Z,1.1
2019-01-19T05:26:03.438Z,1.1
2019-01-19T05:27:03.555Z,3.6
2019-01-19T05:28:03.742Z,1.1
2019-01-19T05:29:03.573Z,1.1
2019-01-19T05:30:03.026Z,1.1
2019-01-19T05:31:03.239Z,1.1
2019-01-19T05:32:03.066Z,2.5
2019-01-19T05:33:02.983Z,2.5
2019-01-19T05:34:02.979Z,1.1
2019-01-19T05:35:03.902Z,2.5
2019-01-19T05:36:02.946Z,2.5
2019-01-19T05:37:03.852Z,2.5
2019-01-19T05:38:03.567Z,1.1
2019-01-19T05:39:02.362Z,0
2019-01-19T05:40:03.429Z,1.1
2019-01-19T05:41:03.452Z,1.1
2019-01-19T05:42:03.670Z,1.1
2019-01-19T05:43:03.723Z,0
2019-01-19T05:44:03.681Z,0
2019-01-19T05:45:03.677Z,0
2019-01-19T05:46:03.704Z,0
2019-01-19T05:47:03.538Z,0
2019-01-19T05:48:03.018Z,0
2019-01-19T05:49:02.903Z,0
2019-01-19T05:50:03.152Z,0
2019-01-19T05:51:03.433Z,0
2019-01-19T05:52:03.634Z,0
2019-01-19T05:53:03.275Z,0
2019-01-19T05:54:03.416Z,0
2019-01-19T05:55:03.634Z,0
2019-01-19T05:56:03.100Z,0
2019-01-19T05:57:02.893Z,0
2019-01-19T05:58:02.962Z,0
2019-01-19T05:59:03.624Z,0
2019-01-19T06:00:03.051Z,0
2019-01-19T06:01:03.645Z,0
2019-01-19T06:02:03.548Z,0
2019-01-19T06:03:03.642Z,0
2019-01-19T06:04:03.983Z,0
2019-01-19T06:05:03.689Z,0
2019-01-19T06:06:03.447Z,0
2019-01-19T06:07:03.217Z,0
2019-01-19T06:08:03.120Z,0
2019-01-19T06:09:03.248Z,0
2019-01-19T06:10:03.554Z,1.1
2019-01-19T06:11:02.788Z,0
2019-01-19T06:12:03.308Z,0
2019-01-19T06:13:03.151Z,0
2019-01-19T06:14:03.768Z,0
2019-01-19T06:15:03.755Z,0
2019-01-19T06:16:03.175Z,0
2019-01-19T06:17:03.925Z,0
2019-01-19T06:18:03.246Z,0
2019-01-19T06:19:03.227Z,0
2019-01-19T06:20:03.749Z,0
2019-01-19T06:21:03.671Z,0
2019-01-19T06:22:03.720Z,0
2019-01-19T06:23:03.007Z,0
2019-01-19T06:24:03.307Z,0
2019-01-19T06:25:03.368Z,0
2019-01-19T06:26:03.848Z,0
2019-01-19T06:27:03.672Z,0
2019-01-19T06:28:02.963Z,0
2019-01-19T06:29:03.750Z,0
2019-01-19T06:30:03.681Z,0
2019-01-19T06:31:03.875Z,0
2019-01-19T06:32:03.883Z,0
2019-01-19T06:33:03.214Z,0
2019-01-19T06:34:03.772Z,0
2019-01-19T06:35:03.476Z,0
2019-01-19T06:36:03.386Z,0
2019-01-19T06:37:04.732Z,0
2019-01-19T06:38:03.192Z,0
2019-01-19T06:39:03.003Z,0
2019-01-19T06:40:03.730Z,0
2019-01-19T06:41:03.979Z,0
2019-01-19T06:42:03.009Z,0
2019-01-19T06:43:03.797Z,0
2019-01-19T06:44:03.197Z,0
2019-01-19T06:45:03.733Z,0
2019-01-19T06:46:03.420Z,0
2019-01-19T06:47:03.101Z,0
2019-01-19T06:48:03.202Z,0
2019-01-19T06:49:03.615Z,0
2019-01-19T06:50:03.572Z,0
2019-01-19T06:51:03.390Z,0
2019-01-19T06:52:03.450Z,0
2019-01-19T06:53:03.243Z,0
2019-01-19T06:54:02.728Z,0
2019-01-19T06:55:03.420Z,0
2019-01-19T06:56:03.716Z,0
2019-01-19T06:57:03.339Z,0
2019-01-19T06:58:03.457Z,0
2019-01-19T06:59:03.226Z,0
2019-01-19T07:00:03.060Z,0
2019-01-19T07:01:02.870Z,0
2019-01-19T07:02:03.026Z,0
2019-01-19T07:03:02.925Z,0
2019-01-19T07:04:02.785Z,0
2019-01-19T07:05:03.673Z,0
2019-01-19T07:06:03.020Z,0
2019-01-19T07:07:03.510Z,0
2019-01-19T07:08:03.153Z,0
2019-01-19T07:09:03.026Z,0
2019-01-19T07:10:03.411Z,0
2019-01-19T07:11:03.382Z,0
2019-01-19T07:12:03.712Z,0
2019-01-19T07:13:03.508Z,0
2019-01-19T07:14:03.084Z,0
2019-01-19T07:15:02.990Z,0
2019-01-19T07:16:03.552Z,0
2019-01-19T07:17:03.351Z,0
2019-01-19T07:18:03.116Z,0
2019-01-19T07:19:03.001Z,0
2019-01-19T07:20:02.260Z,0
2019-01-19T07:21:03.066Z,0
2019-01-19T07:22:03.864Z,0
2019-01-19T07:23:03.717Z,0
2019-01-19T07:24:02.709Z,0
2019-01-19T07:25:03.135Z,0
2019-01-19T07:26:03.078Z,0
2019-01-19T07:27:03.931Z,0
2019-01-19T07:28:03.580Z,0
2019-01-19T07:29:03.442Z,0
2019-01-19T07:30:03.159Z,0
2019-01-19T07:31:03.063Z,0
2019-01-19T07:32:03.106Z,0
2019-01-19T07:33:03.477Z,0
2019-01-19T07:34:03.140Z,0
2019-01-19T07:35:03.674Z,0
2019-01-19T07:36:03.384Z,0
2019-01-19T07:37:10.372Z,1.1
2019-01-19T07:38:03.008Z,0
2019-01-19T07:39:02.971Z,0
2019-01-19T07:40:03.739Z,0
2019-01-19T07:41:03.165Z,0
2019-01-19T07:42:03.207Z,1.1
2019-01-19T07:43:03.377Z,0
2019-01-19T07:44:03.493Z,0
2019-01-19T07:45:03.404Z,0
2019-01-19T07:46:03.571Z,0
2019-01-19T07:47:03.294Z,0
2019-01-19T07:48:02.969Z,0
2019-01-19T07:49:03.806Z,0
2019-01-19T07:50:03.910Z,0
2019-01-19T07:51:03.483Z,0
2019-01-19T07:52:03.109Z,0
2019-01-19T07:53:03.547Z,0
2019-01-19T07:54:03.740Z,0
2019-01-19T07:55:03.230Z,0
2019-01-19T07:56:03.039Z,0
2019-01-19T07:57:02.580Z,0
2019-01-19T07:58:03.804Z,0
2019-01-19T07:59:03.576Z,0
2019-01-19T08:00:03.355Z,0
2019-01-19T08:01:02.976Z,0
2019-01-19T08:02:02.941Z,0
2019-01-19T08:03:03.752Z,0
2019-01-19T08:04:03.534Z,2.5
2019-01-19T08:05:03.233Z,1.1
2019-01-19T08:06:03.635Z,0
2019-01-19T08:07:03.186Z,0
2019-01-19T08:08:03.573Z,1.1
2019-01-19T08:09:03.553Z,1.1
2019-01-19T08:10:03.251Z,0
2019-01-19T08:11:03.120Z,0
2019-01-19T08:12:03.313Z,0
2019-01-19T08:13:03.504Z,0
2019-01-19T08:14:02.872Z,0
2019-01-19T08:15:03.291Z,0
2019-01-19T08:16:02.955Z,0
2019-01-19T08:17:03.052Z,0
2019-01-19T08:18:03.754Z,0
2019-01-19T08:19:03.833Z,0
2019-01-19T08:20:03.758Z,0
2019-01-19T08:21:03.076Z,0
2019-01-19T08:22:03.880Z,0
2019-01-19T08:23:03.383Z,1.1
2019-01-19T08:24:03.102Z,0
2019-01-19T08:25:03.227Z,1.1
2019-01-19T08:26:03.870Z,1.1
2019-01-19T08:27:03.192Z,1.1
2019-01-19T08:28:03.223Z,0
2019-01-19T08:29:03.406Z,0
2019-01-19T08:30:03.075Z,0
2019-01-19T08:31:03.545Z,0
2019-01-19T08:32:02.981Z,1.1
2019-01-19T08:33:03.263Z,1.1
2019-01-19T08:34:03.684Z,1.1
2019-01-19T08:35:03.376Z,0
2019-01-19T08:36:03.010Z,0
2019-01-19T08:37:03.791Z,1.1
2019-01-19T08:38:03.157Z,1.1
2019-01-19T08:39:03.337Z,2.5
2019-01-19T08:40:03.781Z,0
2019-01-19T08:41:03.862Z,1.1
2019-01-19T08:42:03.056Z,0
2019-01-19T08:43:03.719Z,0
2019-01-19T08:44:03.617Z,0
2019-01-19T08:45:03.808Z,0
2019-01-19T08:46:03.892Z,0
2019-01-19T08:47:03.239Z,1.1
2019-01-19T08:48:03.185Z,0
2019-01-19T08:49:02.963Z,0
2019-01-19T08:50:03.162Z,0
2019-01-19T08:51:03.802Z,0
2019-01-19T08:52:03.243Z,1.1
2019-01-19T08:53:03.086Z,1.1
2019-01-19T08:54:03.264Z,1.1
2019-01-19T08:55:02.703Z,1.1
2019-01-19T08:56:03.166Z,0
2019-01-19T08:57:03.285Z,0
2019-01-19T08:58:02.845Z,0
2019-01-19T08:59:03.872Z,0
2019-01-19T09:00:03.144Z,0
2019-01-19T09:01:03.455Z,0
2019-01-19T09:02:03.500Z,0
2019-01-19T09:03:03.221Z,0
2019-01-19T09:04:03.665Z,0
2019-01-19T09:05:03.414Z,0
2019-01-19T09:06:03.180Z,0
2019-01-19T09:07:03.314Z,0
2019-01-19T09:08:03.305Z,0
2019-01-19T09:09:03.138Z,1.1
2019-01-19T09:10:03.597Z,1.1
2019-01-19T09:11:03.716Z,1.1
2019-01-19T09:12:03.408Z,1.1
2019-01-19T09:13:03.237Z,1.1
2019-01-19T09:14:03.630Z,0
2019-01-19T09:15:03.883Z,0
2019-01-19T09:16:03.525Z,0
2019-01-19T09:17:02.908Z,0
2019-01-19T09:18:02.173Z,0
2019-01-19T09:19:03.618Z,0
2019-01-19T09:20:03.772Z,1.1
2019-01-19T09:21:03.848Z,1.1
2019-01-19T09:22:03.282Z,0
2019-01-19T09:23:03.710Z,0
2019-01-19T09:24:03.684Z,0
2019-01-19T09:25:03.752Z,1.1
2019-01-19T09:26:03.494Z,1.1
2019-01-19T09:27:02.973Z,0
2019-01-19T09:28:02.785Z,0
2019-01-19T09:29:03.348Z,0
2019-01-19T09:30:03.259Z,0
2019-01-19T09:31:02.881Z,1.1
2019-01-19T09:32:03.086Z,1.1
2019-01-19T09:33:03.723Z,1.1
2019-01-19T09:34:03.324Z,0
2019-01-19T09:35:03.215Z,0
2019-01-19T09:36:03.071Z,1.1
2019-01-19T09:37:03.299Z,1.1
2019-01-19T09:38:02.810Z,0
2019-01-19T09:39:03.498Z,1.1
2019-01-19T09:40:03.110Z,1.1
2019-01-19T09:41:03.181Z,1.1
2019-01-19T09:42:03.186Z,1.1
2019-01-19T09:43:03.741Z,1.1
2019-01-19T09:44:03.705Z,1.1
2019-01-19T09:45:03.022Z,1.1
2019-01-19T09:46:03.040Z,0
2019-01-19T09:47:02.867Z,0
2019-01-19T09:48:03.311Z,1.1
2019-01-19T09:49:03.438Z,1.1
2019-01-19T09:50:03.504Z,0
2019-01-19T09:51:03.274Z,0
2019-01-19T09:52:03.024Z,0
2019-01-19T09:53:03.697Z,0
2019-01-19T09:54:03.184Z,2.5
2019-01-19T09:55:03.818Z,2.5
2019-01-19T09:56:03.705Z,0
2019-01-19T09:57:03.641Z,0
2019-01-19T09:58:02.991Z,0
2019-01-19T09:59:03.669Z,0
2019-01-19T10:00:03.305Z,0
2019-01-19T10:01:03.101Z,0
2019-01-19T10:02:03.165Z,3.6
2019-01-19T10:03:02.137Z,2.5
2019-01-19T10:04:03.513Z,1.1
2019-01-19T10:05:01.807Z,1.1
2019-01-19T10:06:03.871Z,1.1
2019-01-19T10:07:03.460Z,1.1
2019-01-19T10:08:03.075Z,2.5
2019-01-19T10:09:03.312Z,2.5
2019-01-19T10:10:03.969Z,2.5
2019-01-19T10:11:03.391Z,0
2019-01-19T10:12:03.209Z,2.5
2019-01-19T10:13:02.934Z,2.5
2019-01-19T10:14:03.488Z,3.6
2019-01-19T10:15:03.599Z,8.6
2019-01-19T10:16:02.932Z,2.5
2019-01-19T10:17:03.793Z,2.5
2019-01-19T10:18:03.712Z,2.5
2019-01-19T10:19:03.377Z,3.6
2019-01-19T10:20:03.721Z,5
2019-01-19T10:21:03.495Z,5
2019-01-19T10:22:03.436Z,9.7
2019-01-19T10:23:02.923Z,5
2019-01-19T10:24:03.563Z,7.2
2019-01-19T10:25:02.359Z,7.2
2019-01-19T10:26:03.760Z,9.7
2019-01-19T10:27:03.317Z,9.7
2019-01-19T10:28:03.021Z,6.1
2019-01-19T10:29:03.830Z,2.5
2019-01-19T10:30:03.295Z,2.5
2019-01-19T10:31:03.073Z,2.5
2019-01-19T10:32:03.328Z,6.1
2019-01-19T10:33:02.943Z,2.5
2019-01-19T10:34:02.973Z,2.5
2019-01-19T10:35:04.198Z,2.5
2019-01-19T10:36:03.873Z,2.5
2019-01-19T10:37:03.617Z,2.5
2019-01-19T10:38:03.230Z,8.6
2019-01-19T10:39:03.323Z,9.7
2019-01-19T10:40:03.509Z,6.1
2019-01-19T10:41:03.354Z,6.1
2019-01-19T10:42:03.804Z,6.1
2019-01-19T10:43:03.328Z,5
2019-01-19T10:44:03.070Z,5
2019-01-19T10:45:02.932Z,5
2019-01-19T10:46:02.989Z,8.6
2019-01-19T10:47:03.038Z,7.2
2019-01-19T10:48:03.714Z,5
2019-01-19T10:49:03.499Z,5
2019-01-19T10:50:03.347Z,5
2019-01-19T10:51:03.599Z,7.2
2019-01-19T10:52:03.350Z,7.2
2019-01-19T10:53:03.099Z,6.1
2019-01-19T10:54:03.735Z,6.1
2019-01-19T10:55:03.758Z,3.6
2019-01-19T10:56:03.077Z,1.1
2019-01-19T10:57:03.832Z,5
2019-01-19T10:58:03.459Z,3.6
2019-01-19T10:59:03.768Z,2.5
2019-01-19T11:00:03.271Z,2.5
2019-01-19T11:01:02.929Z,2.5
2019-01-19T11:02:03.316Z,6.1
2019-01-19T11:03:04.026Z,6.1
2019-01-19T11:04:03.822Z,6.1
2019-01-19T11:05:03.739Z,6.1
2019-01-19T11:06:03.591Z,6.1
2019-01-19T11:07:03.280Z,6.1
2019-01-19T11:08:04.537Z,6.1
2019-01-19T11:09:02.945Z,6.1
2019-01-19T11:10:02.950Z,3.6
2019-01-19T11:11:03.288Z,7.2
2019-01-19T11:12:02.567Z,6.1
2019-01-19T11:13:03.639Z,2.5
2019-01-19T11:14:03.799Z,6.1
2019-01-19T11:15:03.914Z,2.5
2019-01-19T11:16:03.812Z,2.5
2019-01-19T11:17:03.813Z,3.6
2019-01-19T11:18:03.058Z,7.2
2019-01-19T11:19:03.859Z,9.7
2019-01-19T11:20:03.582Z,9.7
2019-01-19T11:21:03.894Z,9.7
2019-01-19T11:22:03.651Z,9.7
2019-01-19T11:23:03.376Z,6.1
2019-01-19T11:24:03.580Z,2.5
2019-01-19T11:25:03.200Z,5
2019-01-19T11:26:03.888Z,5
2019-01-19T11:27:03.694Z,2.5
2019-01-19T11:28:03.156Z,2.5
2019-01-19T11:29:03.499Z,7.2
2019-01-19T11:30:03.560Z,6.1
2019-01-19T11:31:02.838Z,5
2019-01-19T11:32:03.630Z,7.2
2019-01-19T11:33:03.312Z,7.2
2019-01-19T11:34:03.715Z,6.1
2019-01-19T11:35:03.499Z,6.1
2019-01-19T11:36:03.259Z,5
2019-01-19T11:37:02.902Z,5
2019-01-19T11:38:03.409Z,8.6
2019-01-19T11:39:03.009Z,8.6
2019-01-19T11:40:02.955Z,5
2019-01-19T11:41:03.710Z,5
2019-01-19T11:42:03.673Z,13.3
2019-01-19T11:43:03.457Z,13.3
2019-01-19T11:44:03.199Z,11.2
2019-01-19T11:45:03.352Z,7.2
2019-01-19T11:46:02.208Z,9.7
2019-01-19T11:47:02.971Z,9.7
2019-01-19T11:48:03.018Z,9.7
2019-01-19T11:49:03.733Z,5
2019-01-19T11:50:03.077Z,3.6
2019-01-19T11:51:03.664Z,3.6
2019-01-19T11:52:03.480Z,8.6
2019-01-19T11:53:03.189Z,6.1
2019-01-19T11:54:03.862Z,2.5
2019-01-19T11:55:03.123Z,7.2
2019-01-19T11:56:03.700Z,8.6
2019-01-19T11:57:03.402Z,8.6
2019-01-19T11:58:03.468Z,3.6
2019-01-19T11:59:03.099Z,3.6
2019-01-19T12:00:03.063Z,3.6
2019-01-19T12:01:03.072Z,3.6
2019-01-19T12:02:03.289Z,1.1
2019-01-19T12:03:03.758Z,1.1
2019-01-19T12:04:03.482Z,3.6
2019-01-19T12:05:03.254Z,7.2
2019-01-19T12:06:03.870Z,13.3
2019-01-19T12:07:03.694Z,8.6
2019-01-19T12:08:03.455Z,8.6
2019-01-19T12:09:03.895Z,5
2019-01-19T12:10:03.766Z,5
2019-01-19T12:11:03.635Z,5
2019-01-19T12:12:03.422Z,2.5
2019-01-19T12:13:03.381Z,2.5
2019-01-19T12:14:03.174Z,2.5
2019-01-19T12:15:03.468Z,2.5
2019-01-19T12:16:03.785Z,2.5
2019-01-19T12:17:02.800Z,5
2019-01-19T12:18:03.875Z,5
2019-01-19T12:19:03.858Z,3.6
2019-01-19T12:20:03.384Z,3.6
2019-01-19T12:21:03.738Z,5
2019-01-19T12:22:03.374Z,5
2019-01-19T12:23:03.788Z,11.2
2019-01-19T12:24:03.284Z,7.2
2019-01-19T12:25:03.575Z,6.1
2019-01-19T12:26:03.790Z,6.1
2019-01-19T12:27:02.931Z,3.6
2019-01-19T12:28:03.824Z,8.6
2019-01-19T12:29:03.581Z,8.6
2019-01-19T12:30:03.205Z,3.6
2019-01-19T12:31:02.968Z,7.2
2019-01-19T12:32:03.762Z,6.1
2019-01-19T12:33:03.432Z,6.1
2019-01-19T12:34:03.095Z,6.1
2019-01-19T12:35:03.756Z,2.5
2019-01-19T12:36:03.668Z,6.1
2019-01-19T12:37:03.552Z,6.1
2019-01-19T12:38:03.173Z,6.1
2019-01-19T12:39:03.279Z,5
2019-01-19T12:40:02.080Z,6.1
2019-01-19T12:41:02.934Z,6.1
2019-01-19T12:42:03.805Z,6.1
2019-01-19T12:43:03.338Z,6.1
2019-01-19T12:44:03.472Z,2.5
2019-01-19T12:45:03.438Z,2.5
2019-01-19T12:46:03.158Z,2.5
2019-01-19T12:47:03.779Z,7.2
2019-01-19T12:48:03.629Z,7.2
2019-01-19T12:49:03.478Z,2.5
2019-01-19T12:50:04.017Z,1.1
2019-01-19T12:51:02.981Z,5
2019-01-19T12:52:02.524Z,8.6
2019-01-19T12:53:03.380Z,8.6
2019-01-19T12:54:03.059Z,7.2
2019-01-19T12:55:03.838Z,3.6
2019-01-19T12:56:03.726Z,2.5
2019-01-19T12:57:03.518Z,2.5
2019-01-19T12:58:03.566Z,6.1
2019-01-19T12:59:03.461Z,6.1
2019-01-19T13:00:03.360Z,2.5
2019-01-19T13:01:03.182Z,1.1
2019-01-19T13:02:03.714Z,1.1
2019-01-19T13:03:03.396Z,1.1
2019-01-19T13:04:02.883Z,1.1
2019-01-19T13:05:03.810Z,1.1
2019-01-19T13:06:03.238Z,1.1
2019-01-19T13:07:02.998Z,1.1
2019-01-19T13:08:03.871Z,1.1
2019-01-19T13:09:03.574Z,3.6
2019-01-19T13:10:03.421Z,3.6
2019-01-19T13:11:03.078Z,5
2019-01-19T13:12:02.695Z,5
2019-01-19T13:13:02.643Z,7.2
2019-01-19T13:14:03.808Z,7.2
2019-01-19T13:15:02.043Z,5
2019-01-19T13:16:02.202Z,3.6
2019-01-19T13:17:03.398Z,3.6
2019-01-19T13:18:03.112Z,2.5
2019-01-19T13:19:03.482Z,5
2019-01-19T13:20:03.215Z,0
2019-01-19T13:21:02.894Z,1.1
2019-01-19T13:22:03.637Z,1.1
2019-01-19T13:23:03.265Z,1.1
2019-01-19T13:24:03.021Z,1.1
2019-01-19T13:25:03.944Z,5
2019-01-19T13:26:03.554Z,5
2019-01-19T13:27:03.217Z,6.1
2019-01-19T13:28:02.964Z,6.1
2019-01-19T13:29:03.458Z,3.6
2019-01-19T13:30:03.068Z,2.5
2019-01-19T13:31:04.129Z,2.5
2019-01-19T13:32:03.457Z,6.1
2019-01-19T13:33:03.698Z,6.1
2019-01-19T13:34:03.655Z,6.1
2019-01-19T13:35:03.157Z,6.1
2019-01-19T13:36:03.230Z,5
2019-01-19T13:37:02.466Z,3.6
2019-01-19T13:38:02.010Z,5
2019-01-19T13:39:03.288Z,3.6
2019-01-19T13:40:03.592Z,3.6
2019-01-19T13:41:04.041Z,3.6
2019-01-19T13:42:03.825Z,5
2019-01-19T13:43:03.763Z,3.6
2019-01-19T13:44:03.705Z,2.5
2019-01-19T13:45:03.255Z,3.6
2019-01-19T13:46:03.446Z,3.6
2019-01-19T13:47:03.222Z,2.5
2019-01-19T13:48:02.932Z,2.5
2019-01-19T13:49:02.987Z,3.6
2019-01-19T13:50:03.973Z,3.6
2019-01-19T13:51:02.839Z,3.6
2019-01-19T13:52:03.422Z,3.6
2019-01-19T13:53:03.405Z,1.1
2019-01-19T13:54:03.024Z,1.1
2019-01-19T13:55:03.626Z,5
2019-01-19T13:56:03.936Z,5
2019-01-19T13:57:02.944Z,2.5
2019-01-19T13:58:03.706Z,2.5
2019-01-19T13:59:03.842Z,3.6
2019-01-19T14:00:03.360Z,3.6
2019-01-19T14:01:02.962Z,1.1
2019-01-19T14:02:03.147Z,3.6
2019-01-19T14:03:03.157Z,3.6
2019-01-19T14:04:02.312Z,3.6
2019-01-19T14:05:03.088Z,3.6
2019-01-19T14:06:02.867Z,2.5
2019-01-19T14:07:03.615Z,3.6
2019-01-19T14:08:03.871Z,1.1
2019-01-19T14:09:03.572Z,1.1